Time;durP1;ratioP1;P1;durP2;ratioP2;P2;SDS_P1;SDS_P2;PMS_P1;PMS_P2;Temp;Humidity;BMP_temperature;BMP_pressure;BME280_temperature;BME280_humidity;BME280_pressure;Samples;Min_cycle;Max_cycle;Signal;HPM_P1;HPM_P2
2019/05/11 00:00:29;;;;;;;;;;;;;;;12.63;85.62;99673.80;;;;-51
2019/05/11 00:02:59;;;;;;;;;;;;;;;12.63;86.16;99673.40;;;;-51
2019/05/11 00:05:29;;;;;;;;;;;;;;;12.62;86.43;99673.30;;;;-52
2019/05/11 00:07:59;;;;;;;;;;;;;;;12.59;86.52;99671.40;;;;-52
2019/05/11 00:10:29;;;;;;;;;;;;;;;12.57;86.63;99668.00;;;;-52
2019/05/11 00:12:59;;;;;;;;;;;;;;;12.54;86.61;99670.70;;;;-51
2019/05/11 00:15:29;;;;;;;;;;;;;;;12.51;86.30;99669.50;;;;-51
2019/05/11 00:18:00;;;;;;;;;;;;;;;12.42;87.72;99654.80;;;;-53
2019/05/11 00:20:29;;;;;;;;;;;;;;;12.45;88.21;99646.00;;;;-51
2019/05/11 00:22:59;;;;;;;;;;;;;;;12.41;88.50;99638.60;;;;-51
2019/05/11 00:25:30;;;;;;;;;;;;;;;12.42;88.58;99631.90;;;;-51
2019/05/11 00:28:00;;;;;;;;;;;;;;;12.38;89.06;99622.20;;;;-52
2019/05/11 00:30:29;;;;;;;;;;;;;;;12.40;88.75;99615.70;;;;-51
2019/05/11 00:33:00;;;;;;;;;;;;;;;12.30;88.58;99604.10;;;;-52
2019/05/11 00:35:29;;;;;;;;;;;;;;;12.31;89.05;99598.20;;;;-51
2019/05/11 00:38:00;;;;;;;;;;;;;;;12.31;89.57;99596.80;;;;-51
2019/05/11 00:40:29;;;;;;;;;;;;;;;12.30;89.13;99594.10;;;;-52
2019/05/11 00:43:00;;;;;;;;;;;;;;;12.27;89.41;99584.40;;;;-52
2019/05/11 00:45:29;;;;;;;;;;;;;;;12.28;89.00;99587.50;;;;-52
2019/05/11 00:47:59;;;;;;;;;;;;;;;12.31;89.84;99590.00;;;;-51
2019/05/11 00:50:30;;;;;;;;;;;;;;;12.30;89.14;99590.00;;;;-52
2019/05/11 00:53:00;;;;;;;;;;;;;;;12.29;88.88;99574.00;;;;-51
2019/05/11 00:55:29;;;;;;;;;;;;;;;12.31;89.59;99567.00;;;;-51
2019/05/11 00:57:59;;;;;;;;;;;;;;;12.31;88.88;99568.00;;;;-51
2019/05/11 01:00:29;;;;;;;;;;;;;;;12.25;89.45;99562.10;;;;-51
2019/05/11 01:03:00;;;;;;;;;;;;;;;12.27;89.71;99558.60;;;;-51
2019/05/11 01:05:30;;;;;;;;;;;;;;;12.23;90.42;99556.30;;;;-51
2019/05/11 01:08:00;;;;;;;;;;;;;;;12.26;89.75;99548.50;;;;-51
2019/05/11 01:10:30;;;;;;;;;;;;;;;12.21;89.73;99544.30;;;;-51
2019/05/11 01:12:59;;;;;;;;;;;;;;;12.18;90.60;99533.80;;;;-51
2019/05/11 01:15:30;;;;;;;;;;;;;;;12.17;90.88;99532.20;;;;-51
2019/05/11 01:18:00;;;;;;;;;;;;;;;12.15;90.42;99528.20;;;;-52
2019/05/11 01:20:30;;;;;;;;;;;;;;;12.16;89.98;99522.90;;;;-51
2019/05/11 01:23:00;;;;;;;;;;;;;;;12.17;90.72;99506.00;;;;-52
2019/05/11 01:25:30;;;;;;;;;;;;;;;12.18;91.51;99499.70;;;;-51
2019/05/11 01:27:59;;;;;;;;;;;;;;;12.12;91.05;99479.70;;;;-51
2019/05/11 01:30:30;;;;;;;;;;;;;;;12.12;91.22;99477.70;;;;-51
2019/05/11 01:33:02;;;;;;;;;;;;;;;12.11;90.95;99463.90;;;;-52
2019/05/11 01:35:30;;;;;;;;;;;;;;;12.10;91.14;99465.90;;;;-51
2019/05/11 01:38:00;;;;;;;;;;;;;;;12.02;91.62;99463.60;;;;-51
2019/05/11 01:40:30;;;;;;;;;;;;;;;12.07;90.88;99464.70;;;;-52
2019/05/11 01:42:59;;;;;;;;;;;;;;;12.05;90.74;99454.40;;;;-51
2019/05/11 01:45:30;;;;;;;;;;;;;;;12.00;91.02;99458.30;;;;-51
2019/05/11 01:48:00;;;;;;;;;;;;;;;12.01;91.28;99462.30;;;;-51
2019/05/11 01:50:30;;;;;;;;;;;;;;;11.98;91.48;99459.80;;;;-51
2019/05/11 01:53:00;;;;;;;;;;;;;;;11.99;91.84;99444.50;;;;-52
2019/05/11 01:55:30;;;;;;;;;;;;;;;11.99;91.70;99453.80;;;;-52
2019/05/11 01:58:00;;;;;;;;;;;;;;;11.98;91.55;99434.60;;;;-52
2019/05/11 02:00:30;;;;;;;;;;;;;;;11.98;91.65;99435.30;;;;-52
2019/05/11 02:03:00;;;;;;;;;;;;;;;11.97;91.72;99434.10;;;;-51
2019/05/11 02:05:30;;;;;;;;;;;;;;;11.97;91.70;99426.30;;;;-51
2019/05/11 02:08:00;;;;;;;;;;;;;;;11.97;91.71;99424.00;;;;-51
2019/05/11 02:10:30;;;;;;;;;;;;;;;11.98;91.53;99418.30;;;;-51
2019/05/11 02:13:00;;;;;;;;;;;;;;;12.01;91.49;99420.70;;;;-52
2019/05/11 02:15:30;;;;;;;;;;;;;;;12.00;91.28;99416.40;;;;-51
2019/05/11 02:18:00;;;;;;;;;;;;;;;11.99;91.63;99417.80;;;;-51
2019/05/11 02:20:30;;;;;;;;;;;;;;;11.98;91.34;99415.50;;;;-52
2019/05/11 02:23:00;;;;;;;;;;;;;;;11.95;91.19;99425.10;;;;-52
2019/05/11 02:25:30;;;;;;;;;;;;;;;11.92;91.64;99420.60;;;;-52
2019/05/11 02:28:00;;;;;;;;;;;;;;;11.90;91.25;99428.20;;;;-51
2019/05/11 02:30:30;;;;;;;;;;;;;;;11.87;91.45;99432.40;;;;-52
2019/05/11 02:33:00;;;;;;;;;;;;;;;11.86;91.88;99428.00;;;;-51
2019/05/11 02:35:30;;;;;;;;;;;;;;;11.88;91.96;99434.40;;;;-51
2019/05/11 02:38:01;;;;;;;;;;;;;;;11.87;92.05;99435.60;;;;-51
2019/05/11 02:40:30;;;;;;;;;;;;;;;11.89;92.02;99436.70;;;;-51
2019/05/11 02:43:00;;;;;;;;;;;;;;;11.86;92.24;99443.00;;;;-51
2019/05/11 02:45:30;;;;;;;;;;;;;;;11.89;92.41;99432.30;;;;-51
2019/05/11 02:48:00;;;;;;;;;;;;;;;11.89;93.00;99427.70;;;;-51
2019/05/11 02:50:30;;;;;;;;;;;;;;;11.91;93.08;99429.10;;;;-51
2019/05/11 02:53:00;;;;;;;;;;;;;;;11.93;93.02;99422.50;;;;-51
2019/05/11 02:55:30;;;;;;;;;;;;;;;11.92;93.62;99426.00;;;;-51
2019/05/11 02:58:00;;;;;;;;;;;;;;;11.94;93.25;99418.70;;;;-52
2019/05/11 03:00:30;;;;;;;;;;;;;;;11.94;93.54;99417.70;;;;-51
2019/05/11 03:03:00;;;;;;;;;;;;;;;11.95;93.83;99412.90;;;;-51
2019/05/11 03:05:30;;;;;;;;;;;;;;;11.95;93.58;99408.30;;;;-51
2019/05/11 03:08:00;;;;;;;;;;;;;;;11.97;93.26;99407.40;;;;-51
2019/05/11 03:10:30;;;;;;;;;;;;;;;11.97;93.54;99402.10;;;;-51
2019/05/11 03:13:00;;;;;;;;;;;;;;;11.96;93.50;99395.00;;;;-51
2019/05/11 03:15:30;;;;;;;;;;;;;;;11.97;93.57;99390.30;;;;-51
2019/05/11 03:18:00;;;;;;;;;;;;;;;11.94;93.42;99390.00;;;;-52
2019/05/11 03:20:30;;;;;;;;;;;;;;;11.94;93.51;99391.10;;;;-51
2019/05/11 03:23:00;;;;;;;;;;;;;;;11.93;93.42;99394.20;;;;-51
2019/05/11 03:25:30;;;;;;;;;;;;;;;11.93;93.22;99393.00;;;;-52
2019/05/11 03:28:00;;;;;;;;;;;;;;;11.92;93.49;99387.10;;;;-52
2019/05/11 03:30:30;;;;;;;;;;;;;;;11.92;93.69;99380.40;;;;-51
2019/05/11 03:33:00;;;;;;;;;;;;;;;11.92;93.47;99374.80;;;;-52
2019/05/11 03:35:30;;;;;;;;;;;;;;;11.92;93.61;99376.60;;;;-51
2019/05/11 03:38:00;;;;;;;;;;;;;;;11.93;93.70;99378.00;;;;-51
2019/05/11 03:40:30;;;;;;;;;;;;;;;11.92;93.50;99380.50;;;;-52
2019/05/11 03:43:00;;;;;;;;;;;;;;;11.89;93.71;99376.90;;;;-51
2019/05/11 03:45:30;;;;;;;;;;;;;;;11.89;93.78;99376.30;;;;-51
2019/05/11 03:48:00;;;;;;;;;;;;;;;11.87;93.97;99376.40;;;;-51
2019/05/11 03:50:30;;;;;;;;;;;;;;;11.88;94.07;99378.70;;;;-51
2019/05/11 03:53:00;;;;;;;;;;;;;;;11.88;93.84;99380.80;;;;-51
2019/05/11 03:55:30;;;;;;;;;;;;;;;11.87;94.24;99384.90;;;;-52
2019/05/11 03:58:00;;;;;;;;;;;;;;;11.88;94.09;99384.50;;;;-51
2019/05/11 04:00:30;;;;;;;;;;;;;;;11.87;94.23;99384.90;;;;-52
2019/05/11 04:03:00;;;;;;;;;;;;;;;11.87;94.07;99383.60;;;;-52
2019/05/11 04:05:30;;;;;;;;;;;;;;;11.87;93.93;99384.70;;;;-52
2019/05/11 04:08:00;;;;;;;;;;;;;;;11.87;94.10;99381.20;;;;-51
2019/05/11 04:10:30;;;;;;;;;;;;;;;11.89;94.34;99372.40;;;;-52
2019/05/11 04:13:00;;;;;;;;;;;;;;;11.89;94.55;99371.60;;;;-51
2019/05/11 04:15:30;;;;;;;;;;;;;;;11.90;94.25;99372.60;;;;-52
2019/05/11 04:18:00;;;;;;;;;;;;;;;11.91;94.22;99376.80;;;;-52
2019/05/11 04:20:30;;;;;;;;;;;;;;;11.90;94.53;99372.10;;;;-52
2019/05/11 04:23:00;;;;;;;;;;;;;;;11.91;94.44;99377.50;;;;-51
2019/05/11 04:25:30;;;;;;;;;;;;;;;11.92;94.45;99376.00;;;;-52
2019/05/11 04:28:00;;;;;;;;;;;;;;;11.94;94.71;99375.60;;;;-52
2019/05/11 04:30:30;;;;;;;;;;;;;;;11.95;94.88;99371.60;;;;-51
2019/05/11 04:33:00;;;;;;;;;;;;;;;11.99;94.97;99369.00;;;;-52
2019/05/11 04:35:30;;;;;;;;;;;;;;;12.00;94.92;99378.80;;;;-52
2019/05/11 04:38:00;;;;;;;;;;;;;;;12.05;95.62;99374.80;;;;-53
2019/05/11 04:40:30;;;;;;;;;;;;;;;12.09;95.13;99376.20;;;;-54
2019/05/11 04:43:00;;;;;;;;;;;;;;;12.12;95.76;99378.30;;;;-52
2019/05/11 04:45:30;;;;;;;;;;;;;;;12.14;95.39;99387.20;;;;-52
2019/05/11 04:48:00;;;;;;;;;;;;;;;12.17;94.95;99382.90;;;;-52
2019/05/11 04:50:30;;;;;;;;;;;;;;;12.20;95.37;99386.10;;;;-52
2019/05/11 04:53:00;;;;;;;;;;;;;;;12.22;95.35;99389.10;;;;-52
2019/05/11 04:55:30;;;;;;;;;;;;;;;12.23;94.49;99387.10;;;;-52
2019/05/11 04:58:00;;;;;;;;;;;;;;;12.25;95.52;99391.10;;;;-52
2019/05/11 05:00:30;;;;;;;;;;;;;;;12.28;95.59;99388.40;;;;-52
2019/05/11 05:03:00;;;;;;;;;;;;;;;12.31;95.76;99393.30;;;;-53
2019/05/11 05:05:30;;;;;;;;;;;;;;;12.32;95.24;99389.60;;;;-54
2019/05/11 05:08:00;;;;;;;;;;;;;;;12.36;95.67;99389.90;;;;-52
2019/05/11 05:10:30;;;;;;;;;;;;;;;12.38;95.75;99395.00;;;;-53
2019/05/11 05:13:00;;;;;;;;;;;;;;;12.41;95.56;99392.80;;;;-52
2019/05/11 05:15:30;;;;;;;;;;;;;;;12.43;95.20;99390.80;;;;-53
2019/05/11 05:18:00;;;;;;;;;;;;;;;12.46;95.44;99396.90;;;;-52
2019/05/11 05:20:30;;;;;;;;;;;;;;;12.47;95.64;99397.80;;;;-51
2019/05/11 05:23:00;;;;;;;;;;;;;;;12.51;95.46;99401.00;;;;-53
2019/05/11 05:25:30;;;;;;;;;;;;;;;12.53;95.60;99398.20;;;;-52
2019/05/11 05:28:00;;;;;;;;;;;;;;;12.55;95.53;99401.10;;;;-53
2019/05/11 05:30:30;;;;;;;;;;;;;;;12.57;96.05;99398.90;;;;-53
2019/05/11 05:33:00;;;;;;;;;;;;;;;12.59;95.82;99404.30;;;;-53
2019/05/11 05:35:30;;;;;;;;;;;;;;;12.61;95.96;99407.90;;;;-54
2019/05/11 05:38:00;;;;;;;;;;;;;;;12.63;96.27;99416.10;;;;-53
2019/05/11 05:40:30;;;;;;;;;;;;;;;12.65;95.91;99417.60;;;;-53
2019/05/11 05:43:00;;;;;;;;;;;;;;;12.68;95.85;99418.40;;;;-52
2019/05/11 05:45:30;;;;;;;;;;;;;;;12.70;95.80;99415.70;;;;-52
2019/05/11 05:48:00;;;;;;;;;;;;;;;12.72;96.12;99418.10;;;;-53
2019/05/11 05:50:30;;;;;;;;;;;;;;;12.74;96.02;99416.30;;;;-51
2019/05/11 05:53:00;;;;;;;;;;;;;;;12.77;95.77;99410.30;;;;-52
2019/05/11 05:55:30;;;;;;;;;;;;;;;12.79;96.05;99407.60;;;;-52
2019/05/11 05:58:00;;;;;;;;;;;;;;;12.83;95.87;99409.80;;;;-52
2019/05/11 06:00:30;;;;;;;;;;;;;;;12.84;95.80;99412.80;;;;-52
2019/05/11 06:03:00;;;;;;;;;;;;;;;12.87;96.01;99413.70;;;;-52
2019/05/11 06:05:30;;;;;;;;;;;;;;;12.89;95.70;99415.50;;;;-52
2019/05/11 06:08:00;;;;;;;;;;;;;;;12.90;95.58;99413.80;;;;-53
2019/05/11 06:10:31;;;;;;;;;;;;;;;12.92;95.27;99412.20;;;;-53
2019/05/11 06:13:02;;;;;;;;;;;;;;;12.93;95.35;99414.30;;;;-51
2019/05/11 06:15:30;;;;;;;;;;;;;;;12.94;95.20;99415.20;;;;-52
2019/05/11 06:18:00;;;;;;;;;;;;;;;12.95;95.30;99409.70;;;;-53
2019/05/11 06:20:30;;;;;;;;;;;;;;;12.97;94.91;99407.30;;;;-53
2019/05/11 06:23:00;;;;;;;;;;;;;;;13.01;95.57;99408.80;;;;-52
2019/05/11 06:25:30;;;;;;;;;;;;;;;13.06;95.68;99409.10;;;;-53
2019/05/11 06:28:00;;;;;;;;;;;;;;;13.15;96.06;99411.90;;;;-53
2019/05/11 06:30:30;;;;;;;;;;;;;;;13.20;95.84;99417.70;;;;-52
2019/05/11 06:33:00;;;;;;;;;;;;;;;13.24;94.76;99416.30;;;;-52
2019/05/11 06:35:30;;;;;;;;;;;;;;;13.28;94.74;99420.80;;;;-51
2019/05/11 06:38:00;;;;;;;;;;;;;;;13.32;95.01;99421.90;;;;-53
2019/05/11 06:40:30;;;;;;;;;;;;;;;13.35;95.31;99422.60;;;;-52
2019/05/11 06:43:01;;;;;;;;;;;;;;;13.39;95.01;99421.00;;;;-52
2019/05/11 06:45:31;;;;;;;;;;;;;;;13.41;94.95;99419.60;;;;-51
2019/05/11 06:48:00;;;;;;;;;;;;;;;13.44;94.67;99420.20;;;;-51
2019/05/11 06:50:31;;;;;;;;;;;;;;;13.46;94.75;99424.60;;;;-51
2019/05/11 06:53:00;;;;;;;;;;;;;;;13.50;94.49;99425.70;;;;-51
2019/05/11 06:55:31;;;;;;;;;;;;;;;13.54;94.52;99422.60;;;;-51
2019/05/11 06:58:00;;;;;;;;;;;;;;;13.59;94.76;99412.70;;;;-52
2019/05/11 07:00:31;;;;;;;;;;;;;;;13.67;95.26;99416.40;;;;-51
2019/05/11 07:03:00;;;;;;;;;;;;;;;13.82;95.80;99419.80;;;;-51
2019/05/11 07:05:30;;;;;;;;;;;;;;;13.88;94.70;99415.60;;;;-51
2019/05/11 07:08:00;;;;;;;;;;;;;;;14.00;94.80;99423.10;;;;-51
2019/05/11 07:10:31;;;;;;;;;;;;;;;14.08;94.44;99416.80;;;;-51
2019/05/11 07:13:01;;;;;;;;;;;;;;;14.16;94.14;99421.30;;;;-51
2019/05/11 07:15:30;;;;;;;;;;;;;;;14.21;93.41;99421.30;;;;-51
2019/05/11 07:18:00;;;;;;;;;;;;;;;14.30;91.26;99426.10;;;;-51
2019/05/11 07:20:31;;;;;;;;;;;;;;;14.32;90.38;99428.10;;;;-51
2019/05/11 07:23:01;;;;;;;;;;;;;;;14.42;89.13;99431.90;;;;-51
2019/05/11 07:25:31;;;;;;;;;;;;;;;14.43;88.01;99426.10;;;;-51
2019/05/11 07:28:01;;;;;;;;;;;;;;;14.47;87.14;99426.00;;;;-51
2019/05/11 07:30:31;;;;;;;;;;;;;;;14.53;88.80;99426.70;;;;-52
2019/05/11 07:33:01;;;;;;;;;;;;;;;14.57;87.80;99421.10;;;;-51
2019/05/11 07:35:31;;;;;;;;;;;;;;;14.58;87.99;99421.30;;;;-51
2019/05/11 07:38:01;;;;;;;;;;;;;;;14.69;88.06;99425.00;;;;-51
2019/05/11 07:40:31;;;;;;;;;;;;;;;14.77;86.33;99426.30;;;;-51
2019/05/11 07:43:01;;;;;;;;;;;;;;;14.78;86.16;99424.40;;;;-51
2019/05/11 07:45:31;;;;;;;;;;;;;;;14.79;86.06;99433.10;;;;-51
2019/05/11 07:48:01;;;;;;;;;;;;;;;14.77;85.14;99423.40;;;;-52
2019/05/11 07:50:31;;;;;;;;;;;;;;;14.78;85.95;99427.40;;;;-51
2019/05/11 07:53:00;;;;;;;;;;;;;;;14.77;85.45;99436.90;;;;-52
2019/05/11 07:55:31;;;;;;;;;;;;;;;14.77;85.00;99441.00;;;;-51
2019/05/11 07:58:00;;;;;;;;;;;;;;;14.77;85.52;99444.80;;;;-52
2019/05/11 08:00:30;;;;;;;;;;;;;;;14.79;86.01;99447.20;;;;-51
2019/05/11 08:03:01;;;;;;;;;;;;;;;14.79;84.64;99450.80;;;;-51
2019/05/11 08:05:31;;;;;;;;;;;;;;;14.77;84.42;99455.30;;;;-51
2019/05/11 08:08:01;;;;;;;;;;;;;;;14.77;82.67;99457.70;;;;-51
2019/05/11 08:10:31;;;;;;;;;;;;;;;14.73;83.54;99464.10;;;;-51
2019/05/11 08:13:01;;;;;;;;;;;;;;;14.69;83.51;99465.70;;;;-51
2019/05/11 08:15:31;;;;;;;;;;;;;;;14.69;84.04;99464.50;;;;-51
2019/05/11 08:18:01;;;;;;;;;;;;;;;14.69;84.27;99463.60;;;;-51
2019/05/11 08:20:31;;;;;;;;;;;;;;;14.71;82.40;99471.60;;;;-51
2019/05/11 08:23:01;;;;;;;;;;;;;;;14.76;81.41;99474.80;;;;-51
2019/05/11 08:25:31;;;;;;;;;;;;;;;14.79;81.30;99476.50;;;;-51
2019/05/11 08:28:01;;;;;;;;;;;;;;;14.94;79.68;99472.80;;;;-51
2019/05/11 08:30:31;;;;;;;;;;;;;;;14.99;80.19;99467.10;;;;-52
2019/05/11 08:33:01;;;;;;;;;;;;;;;15.11;78.70;99472.20;;;;-51
2019/05/11 08:35:31;;;;;;;;;;;;;;;15.21;78.24;99477.60;;;;-51
2019/05/11 08:38:01;;;;;;;;;;;;;;;15.47;76.33;99483.80;;;;-51
2019/05/11 08:40:31;;;;;;;;;;;;;;;15.60;76.62;99468.00;;;;-51
2019/05/11 08:43:01;;;;;;;;;;;;;;;15.73;74.46;99475.30;;;;-51
2019/05/11 08:45:31;;;;;;;;;;;;;;;15.84;72.96;99473.90;;;;-52
2019/05/11 08:48:01;;;;;;;;;;;;;;;15.81;73.33;99487.40;;;;-53
2019/05/11 08:50:31;;;;;;;;;;;;;;;15.85;71.75;99485.50;;;;-52
2019/05/11 08:53:01;;;;;;;;;;;;;;;15.76;73.09;99486.50;;;;-53
2019/05/11 08:55:31;;;;;;;;;;;;;;;15.69;72.99;99489.30;;;;-52
2019/05/11 08:58:01;;;;;;;;;;;;;;;15.64;74.63;99491.80;;;;-51
2019/05/11 09:00:31;;;;;;;;;;;;;;;15.65;71.52;99490.30;;;;-51
2019/05/11 09:03:01;;;;;;;;;;;;;;;15.61;72.20;99495.60;;;;-51
2019/05/11 09:05:31;;;;;;;;;;;;;;;15.60;72.91;99490.20;;;;-51
2019/05/11 09:08:01;;;;;;;;;;;;;;;15.61;72.64;99501.80;;;;-51
2019/05/11 09:10:31;;;;;;;;;;;;;;;15.66;71.72;99485.90;;;;-51
2019/05/11 09:13:01;;;;;;;;;;;;;;;15.72;72.18;99496.60;;;;-52
2019/05/11 09:15:31;;;;;;;;;;;;;;;15.80;72.85;99497.90;;;;-52
2019/05/11 09:18:01;;;;;;;;;;;;;;;16.05;73.53;99507.60;;;;-50
2019/05/11 09:20:31;;;;;;;;;;;;;;;16.14;69.46;99498.50;;;;-51
2019/05/11 09:23:01;;;;;;;;;;;;;;;16.22;68.59;99499.80;;;;-51
2019/05/11 09:25:31;;;;;;;;;;;;;;;16.29;68.47;99503.50;;;;-51
2019/05/11 09:28:01;;;;;;;;;;;;;;;16.22;69.63;99505.60;;;;-52
2019/05/11 09:30:31;;;;;;;;;;;;;;;16.19;71.23;99507.30;;;;-52
2019/05/11 09:33:01;;;;;;;;;;;;;;;16.15;69.52;99512.80;;;;-51
2019/05/11 09:35:31;;;;;;;;;;;;;;;16.11;67.30;99508.10;;;;-51
2019/05/11 09:38:01;;;;;;;;;;;;;;;16.05;67.52;99517.90;;;;-51
2019/05/11 09:40:31;;;;;;;;;;;;;;;16.04;68.52;99527.20;;;;-52
2019/05/11 09:43:01;;;;;;;;;;;;;;;16.01;66.55;99530.70;;;;-52
2019/05/11 09:45:31;;;;;;;;;;;;;;;16.02;67.43;99528.10;;;;-51
2019/05/11 09:48:01;;;;;;;;;;;;;;;16.08;67.22;99535.00;;;;-51
2019/05/11 09:50:31;;;;;;;;;;;;;;;16.08;65.85;99534.30;;;;-52
2019/05/11 09:53:01;;;;;;;;;;;;;;;16.07;65.29;99540.80;;;;-51
2019/05/11 09:55:31;;;;;;;;;;;;;;;16.05;65.91;99547.90;;;;-52
2019/05/11 09:58:01;;;;;;;;;;;;;;;15.96;67.34;99570.30;;;;-51
2019/05/11 10:00:31;;;;;;;;;;;;;;;15.62;71.14;99603.20;;;;-50
2019/05/11 10:03:01;;;;;;;;;;;;;;;15.29;74.34;99606.90;;;;-50
2019/05/11 10:05:31;;;;;;;;;;;;;;;15.07;76.32;99615.60;;;;-52
2019/05/11 10:08:01;;;;;;;;;;;;;;;14.72;78.41;99611.00;;;;-52
2019/05/11 10:10:31;;;;;;;;;;;;;;;14.64;79.72;99601.30;;;;-53
2019/05/11 10:13:01;;;;;;;;;;;;;;;14.68;79.37;99595.00;;;;-51
2019/05/11 10:15:31;;;;;;;;;;;;;;;14.69;79.39;99591.90;;;;-50
2019/05/11 10:18:01;;;;;;;;;;;;;;;14.82;80.62;99593.40;;;;-51
2019/05/11 10:20:31;;;;;;;;;;;;;;;14.89;78.29;99591.30;;;;-53
2019/05/11 10:23:01;;;;;;;;;;;;;;;14.95;76.75;99591.30;;;;-53
2019/05/11 10:25:31;;;;;;;;;;;;;;;14.97;76.16;99592.30;;;;-50
2019/05/11 10:28:01;;;;;;;;;;;;;;;15.03;74.78;99588.30;;;;-53
2019/05/11 10:30:31;;;;;;;;;;;;;;;15.08;74.21;99587.60;;;;-52
2019/05/11 10:33:01;;;;;;;;;;;;;;;15.18;73.39;99589.20;;;;-51
2019/05/11 10:35:31;;;;;;;;;;;;;;;15.31;75.46;99585.60;;;;-51
2019/05/11 10:38:01;;;;;;;;;;;;;;;15.49;72.90;99583.90;;;;-51
2019/05/11 10:40:31;;;;;;;;;;;;;;;15.62;74.40;99580.50;;;;-51
2019/05/11 10:43:01;;;;;;;;;;;;;;;15.78;71.00;99580.70;;;;-51
2019/05/11 10:45:31;;;;;;;;;;;;;;;15.88;72.18;99577.10;;;;-52
2019/05/11 10:48:01;;;;;;;;;;;;;;;15.92;68.65;99584.30;;;;-51
2019/05/11 10:50:31;;;;;;;;;;;;;;;15.93;67.87;99579.80;;;;-51
2019/05/11 10:53:01;;;;;;;;;;;;;;;15.98;69.51;99571.40;;;;-49
2019/05/11 10:55:31;;;;;;;;;;;;;;;16.08;69.96;99566.50;;;;-53
2019/05/11 10:58:01;;;;;;;;;;;;;;;16.26;70.19;99567.60;;;;-53
2019/05/11 11:00:31;;;;;;;;;;;;;;;16.40;69.07;99564.30;;;;-53
2019/05/11 11:03:01;;;;;;;;;;;;;;;16.54;67.43;99559.80;;;;-53
2019/05/11 11:05:31;;;;;;;;;;;;;;;16.73;66.69;99560.20;;;;-50
2019/05/11 11:08:01;;;;;;;;;;;;;;;16.81;64.52;99568.40;;;;-50
2019/05/11 11:10:31;;;;;;;;;;;;;;;16.85;64.99;99562.50;;;;-50
2019/05/11 11:13:01;;;;;;;;;;;;;;;16.88;64.40;99562.90;;;;-50
2019/05/11 11:15:31;;;;;;;;;;;;;;;16.88;65.02;99565.50;;;;-49
2019/05/11 11:18:01;;;;;;;;;;;;;;;16.92;64.47;99565.70;;;;-49
2019/05/11 11:20:31;;;;;;;;;;;;;;;16.93;64.07;99557.40;;;;-49
2019/05/11 11:23:01;;;;;;;;;;;;;;;17.21;63.50;99563.50;;;;-50
2019/05/11 11:25:31;;;;;;;;;;;;;;;17.24;62.30;99562.40;;;;-49
2019/05/11 11:28:01;;;;;;;;;;;;;;;17.18;61.86;99556.40;;;;-51
2019/05/11 11:30:31;;;;;;;;;;;;;;;17.30;62.51;99563.50;;;;-51
2019/05/11 11:33:01;;;;;;;;;;;;;;;17.24;60.91;99567.20;;;;-51
2019/05/11 11:35:31;;;;;;;;;;;;;;;17.16;62.22;99566.90;;;;-51
2019/05/11 11:38:01;;;;;;;;;;;;;;;16.99;63.47;99602.20;;;;-52
2019/05/11 11:40:31;;;;;;;;;;;;;;;16.55;70.44;99614.50;;;;-51
2019/05/11 11:43:01;;;;;;;;;;;;;;;16.19;73.29;99602.40;;;;-51
2019/05/11 11:45:31;;;;;;;;;;;;;;;16.19;74.81;99597.40;;;;-51
2019/05/11 11:48:01;;;;;;;;;;;;;;;16.28;77.08;99599.40;;;;-52
2019/05/11 11:50:31;;;;;;;;;;;;;;;16.19;77.45;99601.80;;;;-52
2019/05/11 11:53:01;;;;;;;;;;;;;;;16.32;76.34;99604.40;;;;-51
2019/05/11 11:55:31;;;;;;;;;;;;;;;16.12;77.14;99601.20;;;;-52
2019/05/11 11:58:01;;;;;;;;;;;;;;;16.49;77.16;99596.40;;;;-51
2019/05/11 12:00:31;;;;;;;;;;;;;;;16.56;76.77;99599.70;;;;-51
2019/05/11 12:03:01;;;;;;;;;;;;;;;16.72;74.98;99598.50;;;;-53
2019/05/11 12:05:31;;;;;;;;;;;;;;;16.84;74.06;99600.40;;;;-51
2019/05/11 12:08:01;;;;;;;;;;;;;;;16.88;72.86;99603.40;;;;-51
2019/05/11 12:10:31;;;;;;;;;;;;;;;16.81;69.00;99597.50;;;;-52
2019/05/11 12:13:01;;;;;;;;;;;;;;;16.81;68.35;99595.30;;;;-51
2019/05/11 12:15:31;;;;;;;;;;;;;;;16.86;68.23;99597.40;;;;-52
2019/05/11 12:18:01;;;;;;;;;;;;;;;16.99;67.57;99594.80;;;;-53
2019/05/11 12:20:31;;;;;;;;;;;;;;;17.10;68.91;99590.20;;;;-51
2019/05/11 12:23:01;;;;;;;;;;;;;;;17.24;64.55;99590.80;;;;-51
2019/05/11 12:25:31;;;;;;;;;;;;;;;17.37;67.57;99591.20;;;;-51
2019/05/11 12:28:01;;;;;;;;;;;;;;;17.34;64.27;99588.50;;;;-51
2019/05/11 12:30:31;;;;;;;;;;;;;;;17.29;63.62;99589.60;;;;-51
2019/05/11 12:33:01;;;;;;;;;;;;;;;17.03;60.79;99625.20;;;;-51
2019/05/11 12:35:31;;;;;;;;;;;;;;;16.72;61.42;99641.10;;;;-52
2019/05/11 12:38:01;;;;;;;;;;;;;;;16.43;65.45;99654.80;;;;-52
2019/05/11 12:40:31;;;;;;;;;;;;;;;16.25;68.35;99673.40;;;;-52
2019/05/11 12:43:01;;;;;;;;;;;;;;;16.04;71.04;99696.70;;;;-52
2019/05/11 12:45:31;;;;;;;;;;;;;;;15.85;71.01;99695.00;;;;-52
2019/05/11 12:48:01;;;;;;;;;;;;;;;15.55;72.24;99683.20;;;;-52
2019/05/11 12:50:31;;;;;;;;;;;;;;;15.08;75.58;99687.90;;;;-52
2019/05/11 12:53:01;;;;;;;;;;;;;;;14.93;76.66;99691.90;;;;-52
2019/05/11 12:55:31;;;;;;;;;;;;;;;14.78;76.54;99696.90;;;;-52
2019/05/11 12:58:01;;;;;;;;;;;;;;;14.99;80.23;99707.20;;;;-52
2019/05/11 13:00:31;;;;;;;;;;;;;;;15.14;79.66;99706.30;;;;-52
2019/05/11 13:03:01;;;;;;;;;;;;;;;15.05;78.64;99710.20;;;;-52
2019/05/11 13:05:32;;;;;;;;;;;;;;;14.89;77.49;99710.30;;;;-52
2019/05/11 13:08:01;;;;;;;;;;;;;;;15.23;78.37;99706.40;;;;-52
2019/05/11 13:10:31;;;;;;;;;;;;;;;15.62;81.73;99705.70;;;;-52
2019/05/11 13:13:01;;;;;;;;;;;;;;;15.47;79.89;99708.60;;;;-52
2019/05/11 13:15:31;;;;;;;;;;;;;;;15.74;80.40;99712.10;;;;-53
2019/05/11 13:18:01;;;;;;;;;;;;;;;15.47;80.64;99717.30;;;;-53
2019/05/11 13:20:31;;;;;;;;;;;;;;;15.27;80.98;99704.80;;;;-52
2019/05/11 13:23:01;;;;;;;;;;;;;;;14.72;81.67;99713.90;;;;-53
2019/05/11 13:25:31;;;;;;;;;;;;;;;14.55;83.84;99714.20;;;;-52
2019/05/11 13:28:01;;;;;;;;;;;;;;;14.60;84.67;99718.10;;;;-50
2019/05/11 13:30:32;;;;;;;;;;;;;;;14.37;85.00;99731.00;;;;-51
2019/05/11 13:33:01;;;;;;;;;;;;;;;14.12;84.91;99731.00;;;;-51
2019/05/11 13:35:31;;;;;;;;;;;;;;;14.30;84.33;99722.80;;;;-51
2019/05/11 13:38:01;;;;;;;;;;;;;;;14.50;82.69;99724.90;;;;-51
2019/05/11 13:40:31;;;;;;;;;;;;;;;14.24;84.11;99727.60;;;;-52
2019/05/11 13:43:02;;;;;;;;;;;;;;;14.19;85.67;99734.50;;;;-51
2019/05/11 13:45:31;;;;;;;;;;;;;;;14.18;85.82;99740.00;;;;-50
2019/05/11 13:48:01;;;;;;;;;;;;;;;14.05;85.39;99751.80;;;;-50
2019/05/11 13:50:31;;;;;;;;;;;;;;;13.94;84.58;99756.80;;;;-52
2019/05/11 13:53:02;;;;;;;;;;;;;;;13.87;85.02;99771.20;;;;-51
2019/05/11 13:55:32;;;;;;;;;;;;;;;13.81;84.38;99774.60;;;;-51
2019/05/11 13:58:01;;;;;;;;;;;;;;;13.74;83.12;99777.00;;;;-51
2019/05/11 14:00:32;;;;;;;;;;;;;;;13.75;83.25;99781.30;;;;-52
2019/05/11 14:03:05;;;;;;;;;;;;;;;13.98;83.76;99774.00;;;;-52
2019/05/11 14:05:32;;;;;;;;;;;;;;;14.09;84.41;99779.00;;;;-51
2019/05/11 14:08:02;;;;;;;;;;;;;;;13.91;84.22;99780.40;;;;-52
2019/05/11 14:10:32;;;;;;;;;;;;;;;13.69;85.91;99782.90;;;;-52
2019/05/11 14:13:02;;;;;;;;;;;;;;;13.61;85.83;99774.60;;;;-51
2019/05/11 14:15:32;;;;;;;;;;;;;;;13.71;87.16;99776.50;;;;-53
2019/05/11 14:18:02;;;;;;;;;;;;;;;13.93;88.05;99784.10;;;;-53
2019/05/11 14:20:32;;;;;;;;;;;;;;;14.05;85.53;99791.40;;;;-52
2019/05/11 14:23:02;;;;;;;;;;;;;;;14.46;86.51;99801.80;;;;-52
2019/05/11 14:25:32;;;;;;;;;;;;;;;14.34;84.40;99809.40;;;;-52
2019/05/11 14:28:02;;;;;;;;;;;;;;;13.85;83.36;99821.30;;;;-53
2019/05/11 14:30:32;;;;;;;;;;;;;;;13.71;83.89;99828.10;;;;-52
2019/05/11 14:33:02;;;;;;;;;;;;;;;13.46;82.26;99848.20;;;;-52
2019/05/11 14:35:32;;;;;;;;;;;;;;;13.13;81.90;99861.30;;;;-52
2019/05/11 14:38:02;;;;;;;;;;;;;;;13.16;83.50;99884.90;;;;-52
2019/05/11 14:40:32;;;;;;;;;;;;;;;13.10;82.67;99885.50;;;;-52
2019/05/11 14:43:02;;;;;;;;;;;;;;;12.89;82.57;99902.40;;;;-51
2019/05/11 14:45:32;;;;;;;;;;;;;;;12.83;82.95;99912.70;;;;-50
2019/05/11 14:48:02;;;;;;;;;;;;;;;12.61;82.37;99914.80;;;;-53
2019/05/11 14:50:32;;;;;;;;;;;;;;;12.52;83.70;99911.80;;;;-52
2019/05/11 14:53:02;;;;;;;;;;;;;;;12.46;84.80;99915.20;;;;-51
2019/05/11 14:55:32;;;;;;;;;;;;;;;12.30;85.00;99915.00;;;;-51
2019/05/11 14:58:02;;;;;;;;;;;;;;;12.20;86.41;99918.40;;;;-52
2019/05/11 15:00:32;;;;;;;;;;;;;;;12.15;86.66;99915.60;;;;-53
2019/05/11 15:03:02;;;;;;;;;;;;;;;12.18;86.22;99911.20;;;;-51
2019/05/11 15:05:32;;;;;;;;;;;;;;;12.23;87.37;99908.80;;;;-51
2019/05/11 15:08:02;;;;;;;;;;;;;;;12.13;86.32;99914.70;;;;-51
2019/05/11 15:10:32;;;;;;;;;;;;;;;12.16;84.70;99911.50;;;;-51
2019/05/11 15:13:02;;;;;;;;;;;;;;;12.11;85.06;99911.10;;;;-53
2019/05/11 15:15:32;;;;;;;;;;;;;;;12.14;84.40;99909.90;;;;-52
2019/05/11 15:18:02;;;;;;;;;;;;;;;12.23;84.10;99916.90;;;;-52
2019/05/11 15:20:32;;;;;;;;;;;;;;;12.21;83.29;99920.90;;;;-51
2019/05/11 15:23:02;;;;;;;;;;;;;;;12.37;83.28;99935.40;;;;-51
2019/05/11 15:25:32;;;;;;;;;;;;;;;12.40;83.53;99938.50;;;;-51
2019/05/11 15:28:02;;;;;;;;;;;;;;;12.31;81.08;99947.50;;;;-52
2019/05/11 15:30:32;;;;;;;;;;;;;;;12.33;82.03;99952.20;;;;-51
2019/05/11 15:33:02;;;;;;;;;;;;;;;12.32;80.16;99954.70;;;;-55
2019/05/11 15:35:32;;;;;;;;;;;;;;;12.24;79.81;99968.90;;;;-51
2019/05/11 15:40:36;;;;;;;;;;;;;;;12.06;80.67;99985.20;;;;-65
2019/05/11 15:45:24;;;;;;;;;;;;;;;11.93;79.52;99997.90;;;;-64
2019/05/11 15:46:24;;;;;;;;;;;;;;;11.90;79.01;100004.60;;;;-65
2019/05/11 15:47:24;;;;;;;;;;;;;;;11.88;78.98;99996.50;;;;-67
2019/05/11 15:48:24;;;;;;;;;;;;;;;11.90;80.59;99998.30;;;;-60
2019/05/11 15:49:24;;;;;;;;;;;;;;;11.98;80.63;100005.70;;;;-58
2019/05/11 15:50:24;;;;;;;;;;;;;;;12.02;80.75;100004.50;;;;-60
2019/05/11 15:51:24;;;;;;;;;;;;;;;11.93;78.98;100015.40;;;;-58